createdAt,value
2023-04-26T02:18:09.057Z,6.53
2023-04-26T02:21:57.336Z,6.33
2023-04-26T02:23:12.082Z,6.33
2023-04-26T02:26:59.504Z,6.40
2023-04-26T02:31:57.246Z,6.53
2023-04-26T02:36:56.304Z,6.61
2023-04-26T02:41:56.933Z,6.67
2023-04-26T06:07:50.983Z,8.43
2023-04-26T06:11:41.600Z,8.43
2023-04-26T06:16:43.741Z,8.38
2023-04-26T06:21:42.080Z,8.51
2023-04-26T06:26:41.617Z,8.70
2023-04-26T06:31:41.873Z,9.36
2023-04-26T06:36:42.188Z,9.90
2023-04-26T06:41:42.633Z,10.24
2023-04-26T06:46:41.689Z,10.81
2023-04-26T06:51:42.474Z,11.10
2023-04-26T06:56:41.585Z,11.66
2023-04-26T07:01:41.687Z,12.11
2023-04-26T07:06:42.418Z,12.48
2023-04-26T07:11:41.613Z,12.89
2023-04-26T07:11:50.884Z,12.89
2023-04-26T07:16:41.717Z,13.66
2023-04-26T07:18:47.739Z,13.82
2023-04-26T07:21:41.563Z,13.82
2023-04-26T07:26:41.664Z,14.22
2023-04-26T07:31:42.174Z,14.75
2023-04-26T07:36:41.659Z,15.09
2023-04-26T07:41:43.712Z,16.77
2023-04-26T07:46:42.365Z,17.41
2023-04-26T07:51:44.288Z,18.61
2023-04-26T07:56:41.573Z,18.95
2023-04-26T08:01:42.122Z,17.56
2023-04-26T08:06:44.221Z,18.61
2023-04-26T08:11:41.560Z,18.63
2023-04-26T08:16:43.155Z,19.32
2023-04-26T08:21:41.610Z,17.61
2023-04-26T08:26:41.889Z,16.04
2023-04-26T08:31:42.742Z,16.04
2023-04-26T08:36:41.626Z,16.96
2023-04-26T08:41:43.299Z,18.22
2023-04-26T08:46:48.899Z,16.72
2023-04-26T08:51:43.813Z,15.81
2023-04-26T08:56:43.133Z,14.30
2023-04-26T09:01:43.561Z,14.07
2023-04-26T09:05:09.762Z,15.40
2023-04-26T09:06:42.634Z,15.40
2023-04-26T09:11:53.221Z,14.91
2023-04-26T09:16:41.551Z,13.83
2023-04-26T09:21:44.274Z,13.37
2023-04-26T09:26:41.912Z,14.27
2023-04-26T09:31:43.785Z,14.11
2023-04-26T09:36:50.763Z,13.08
2023-04-26T09:41:43.711Z,12.34
2023-04-26T09:46:59.791Z,12.15
2023-04-26T09:52:00.150Z,12.06
2023-04-26T09:56:52.261Z,11.92
2023-04-26T10:01:41.763Z,11.65
2023-04-26T10:06:42.085Z,11.33
2023-04-26T10:11:41.543Z,11.00
2023-04-26T10:16:44.111Z,10.93
2023-04-26T10:21:42.986Z,10.86
2023-04-26T10:26:51.923Z,10.87
2023-04-26T10:32:01.382Z,10.71
2023-04-26T10:37:01.720Z,10.99
2023-04-26T10:41:41.487Z,12.30
2023-04-26T10:46:42.308Z,12.19
2023-04-26T10:52:01.567Z,11.71
2023-04-26T10:56:51.965Z,11.50
2023-04-26T11:01:41.824Z,11.46
2023-04-26T11:06:47.717Z,12.14
2023-04-26T11:11:51.237Z,12.61
2023-04-26T11:16:41.472Z,12.55
2023-04-26T11:21:42.369Z,12.62
2023-04-26T11:26:41.443Z,12.70
2023-04-26T11:31:41.882Z,12.39
2023-04-26T11:36:43.880Z,12.20
2023-04-26T11:41:41.678Z,12.00
2023-04-26T11:46:42.134Z,12.85
2023-04-26T11:51:42.375Z,12.92
2023-04-26T11:56:41.659Z,12.61
2023-04-26T12:01:50.161Z,12.30
2023-04-26T12:06:43.419Z,11.84
2023-04-26T12:11:47.085Z,11.62
2023-04-26T12:16:41.871Z,11.21
2023-04-26T12:21:43.325Z,10.93
2023-04-26T12:26:43.686Z,11.10
2023-04-26T12:31:42.088Z,11.17
2023-04-26T12:36:43.573Z,10.66
2023-04-26T12:41:42.269Z,10.49
2023-04-26T12:46:41.739Z,10.19
2023-04-26T12:51:42.050Z,10.22
2023-04-26T12:56:43.313Z,10.44
2023-04-26T13:01:41.538Z,10.45
2023-04-26T13:06:41.824Z,10.74
2023-04-26T13:11:41.518Z,10.78
2023-04-26T13:16:42.828Z,10.51
2023-04-26T13:21:42.169Z,10.37
2023-04-26T13:26:41.412Z,10.28
2023-04-26T13:31:42.567Z,10.65
2023-04-26T13:36:41.551Z,10.73
2023-04-26T13:41:41.789Z,10.86
2023-04-26T13:43:38.418Z,10.80
2023-04-26T13:46:41.925Z,10.80
2023-04-26T13:51:42.627Z,10.66
2023-04-26T13:56:41.363Z,10.65
2023-04-26T14:01:41.587Z,10.52
2023-04-26T14:06:41.833Z,10.41
2023-04-26T14:11:41.427Z,10.56
2023-04-26T14:16:41.838Z,10.55
2023-04-26T14:21:48.749Z,10.44
2023-04-26T14:26:41.401Z,10.35
2023-04-26T14:31:41.416Z,10.43
2023-04-26T14:36:41.821Z,10.27
2023-04-26T14:41:41.617Z,10.23
2023-04-26T14:46:41.672Z,10.01
2023-04-26T14:51:42.053Z,9.95
2023-04-26T14:56:41.333Z,10.00
2023-04-26T15:01:41.423Z,10.12
2023-04-26T15:06:41.934Z,10.12
2023-04-26T15:11:41.610Z,10.09
2023-04-26T15:16:41.498Z,10.13
2023-04-26T15:21:41.988Z,10.17
2023-04-26T15:26:41.468Z,10.26
2023-04-26T15:31:41.821Z,10.33
2023-04-26T15:36:42.024Z,10.21
2023-04-26T15:41:41.671Z,10.09
2023-04-26T15:46:42.100Z,10.03
2023-04-26T15:51:42.678Z,10.00
2023-04-26T15:56:42.586Z,9.97
2023-04-26T16:01:41.615Z,9.93
2023-04-26T16:02:27.469Z,9.93
2023-04-26T18:51:53.197Z,8.58
2023-04-26T18:52:19.807Z,8.58
2023-04-26T18:57:21.777Z,8.52
2023-04-26T19:02:20.550Z,8.46
2023-04-26T19:07:20.174Z,8.44
2023-04-26T19:12:19.911Z,8.34
2023-04-26T19:17:20.388Z,8.31
2023-04-26T19:22:20.338Z,8.16
2023-04-26T19:27:19.996Z,8.04
2023-04-26T19:32:21.859Z,7.95
2023-04-26T19:37:19.907Z,7.88
2023-04-26T19:42:19.746Z,7.84
2023-04-26T19:43:50.956Z,7.84
2023-04-26T19:47:19.782Z,7.77
2023-04-26T19:52:20.013Z,7.66
2023-04-26T19:57:21.075Z,7.50
2023-04-26T20:02:19.905Z,7.41
2023-04-26T20:07:20.734Z,7.35
2023-04-26T20:12:20.386Z,7.30
2023-04-26T20:17:20.607Z,7.24
2023-04-26T20:22:19.974Z,7.15
2023-04-26T20:27:20.729Z,6.99
2023-04-26T20:32:20.077Z,6.93
2023-04-26T20:37:20.827Z,6.80
2023-04-26T20:42:21.160Z,6.74
2023-04-26T20:47:19.735Z,6.68
2023-04-26T20:52:19.809Z,6.60
2023-04-26T20:57:20.383Z,6.52
2023-04-26T21:02:20.094Z,6.48
2023-04-26T21:07:19.933Z,6.43
2023-04-26T21:10:06.064Z,6.43
2023-04-26T21:12:19.986Z,6.33
2023-04-26T21:17:20.000Z,6.20
2023-04-26T21:22:20.252Z,6.18
2023-04-26T21:27:19.709Z,6.09
2023-04-26T21:32:19.839Z,6.02
2023-04-26T21:37:19.871Z,5.93
2023-04-26T21:42:19.690Z,5.90
2023-04-26T21:47:20.023Z,5.84
2023-04-26T21:52:20.654Z,5.72
2023-04-26T21:57:23.003Z,5.69
2023-04-26T22:02:20.121Z,5.61
2023-04-26T22:04:02.602Z,5.61
2023-04-26T22:07:19.937Z,5.57
2023-04-26T22:12:20.235Z,5.52
2023-04-26T22:17:20.544Z,5.42
2023-04-26T22:22:19.694Z,5.41
2023-04-26T22:27:21.241Z,5.43
2023-04-26T22:32:20.446Z,5.38
2023-04-26T22:37:21.544Z,5.38
2023-04-26T22:42:19.670Z,5.35
2023-04-26T22:47:21.900Z,5.29
2023-04-26T22:52:30.462Z,5.28
2023-04-26T22:57:20.136Z,5.24
2023-04-26T23:02:20.725Z,5.19
2023-04-26T23:07:19.963Z,5.14
2023-04-26T23:12:19.906Z,5.07
2023-04-26T23:17:20.103Z,4.98
2023-04-26T23:22:19.757Z,4.96
2023-04-26T23:27:19.944Z,4.85
2023-04-26T23:32:20.402Z,4.84
2023-04-26T23:37:19.631Z,4.82
2023-04-26T23:42:19.740Z,4.75
2023-04-26T23:47:20.275Z,4.73
2023-04-26T23:52:19.617Z,4.67
2023-04-26T23:57:20.562Z,4.63
